sensor_id;sensor_type;location;lat;lon;timestamp;temperature;humidity
40059;SHT31;25763;49.972;8.568;2023-03-05T00:01:12;5.70;78.09
40059;SHT31;25763;49.972;8.568;2023-03-05T00:03:38;5.67;78.04
40059;SHT31;25763;49.972;8.568;2023-03-05T00:06:04;5.70;77.80
40059;SHT31;25763;49.972;8.568;2023-03-05T00:08:30;5.67;77.72
40059;SHT31;25763;49.972;8.568;2023-03-05T00:11:07;5.66;77.77
40059;SHT31;25763;49.972;8.568;2023-03-05T00:13:33;5.69;77.66
40059;SHT31;25763;49.972;8.568;2023-03-05T00:16:02;5.69;77.53
40059;SHT31;25763;49.972;8.568;2023-03-05T00:18:27;5.62;77.27
40059;SHT31;25763;49.972;8.568;2023-03-05T00:20:53;5.62;77.10
40059;SHT31;25763;49.972;8.568;2023-03-05T00:23:18;5.70;76.97
40059;SHT31;25763;49.972;8.568;2023-03-05T00:25:43;5.67;76.78
40059;SHT31;25763;49.972;8.568;2023-03-05T00:28:11;5.69;76.62
40059;SHT31;25763;49.972;8.568;2023-03-05T00:30:36;5.78;76.42
40059;SHT31;25763;49.972;8.568;2023-03-05T00:33:02;5.80;76.26
40059;SHT31;25763;49.972;8.568;2023-03-05T00:35:27;5.77;76.29
40059;SHT31;25763;49.972;8.568;2023-03-05T00:37:53;5.81;76.13
40059;SHT31;25763;49.972;8.568;2023-03-05T00:40:18;5.84;76.03
40059;SHT31;25763;49.972;8.568;2023-03-05T00:42:44;5.80;75.97
40059;SHT31;25763;49.972;8.568;2023-03-05T00:45:10;5.78;75.95
40059;SHT31;25763;49.972;8.568;2023-03-05T00:47:35;5.78;75.86
40059;SHT31;25763;49.972;8.568;2023-03-05T00:50:02;5.84;75.77
40059;SHT31;25763;49.972;8.568;2023-03-05T00:52:28;5.81;75.58
40059;SHT31;25763;49.972;8.568;2023-03-05T00:54:53;5.80;75.58
40059;SHT31;25763;49.972;8.568;2023-03-05T00:57:18;5.80;75.55
40059;SHT31;25763;49.972;8.568;2023-03-05T00:59:44;5.69;75.80
40059;SHT31;25763;49.972;8.568;2023-03-05T01:02:10;5.77;75.66
40059;SHT31;25763;49.972;8.568;2023-03-05T01:04:35;5.74;75.54
40059;SHT31;25763;49.972;8.568;2023-03-05T01:07:01;5.75;75.52
40059;SHT31;25763;49.972;8.568;2023-03-05T01:09:26;5.70;75.41
40059;SHT31;25763;49.972;8.568;2023-03-05T01:11:52;5.73;75.30
40059;SHT31;25763;49.972;8.568;2023-03-05T01:14:18;5.71;75.26
40059;SHT31;25763;49.972;8.568;2023-03-05T01:16:43;5.67;75.14
40059;SHT31;25763;49.972;8.568;2023-03-05T01:19:09;5.70;75.02
40059;SHT31;25763;49.972;8.568;2023-03-05T01:21:35;5.69;74.86
40059;SHT31;25763;49.972;8.568;2023-03-05T01:24:01;5.73;74.76
40059;SHT31;25763;49.972;8.568;2023-03-05T01:26:27;5.74;74.72
40059;SHT31;25763;49.972;8.568;2023-03-05T01:32:14;5.78;74.39
40059;SHT31;25763;49.972;8.568;2023-03-05T01:34:40;5.74;74.31
40059;SHT31;25763;49.972;8.568;2023-03-05T01:37:07;5.67;74.21
40059;SHT31;25763;49.972;8.568;2023-03-05T01:39:32;5.70;73.98
40059;SHT31;25763;49.972;8.568;2023-03-05T01:41:58;5.70;73.98
40059;SHT31;25763;49.972;8.568;2023-03-05T01:44:25;5.67;73.96
40059;SHT31;25763;49.972;8.568;2023-03-05T01:46:51;5.71;74.06
40059;SHT31;25763;49.972;8.568;2023-03-05T01:49:20;5.71;74.04
40059;SHT31;25763;49.972;8.568;2023-03-05T01:52:02;5.73;74.06
40059;SHT31;25763;49.972;8.568;2023-03-05T01:54:34;5.70;74.04
40059;SHT31;25763;49.972;8.568;2023-03-05T01:57:06;5.67;73.87
40059;SHT31;25763;49.972;8.568;2023-03-05T01:59:35;5.57;73.21
40059;SHT31;25763;49.972;8.568;2023-03-05T02:02:01;5.54;72.85
40059;SHT31;25763;49.972;8.568;2023-03-05T02:04:40;5.56;72.73
40059;SHT31;25763;49.972;8.568;2023-03-05T02:07:07;5.51;72.70
40059;SHT31;25763;49.972;8.568;2023-03-05T02:09:37;5.47;72.47
40059;SHT31;25763;49.972;8.568;2023-03-05T02:12:02;5.51;72.52
40059;SHT31;25763;49.972;8.568;2023-03-05T02:14:27;5.47;71.59
40059;SHT31;25763;49.972;8.568;2023-03-05T02:16:53;5.40;69.27
40059;SHT31;25763;49.972;8.568;2023-03-05T02:19:18;5.40;68.73
40059;SHT31;25763;49.972;8.568;2023-03-05T02:21:46;5.39;67.69
40059;SHT31;25763;49.972;8.568;2023-03-05T02:24:13;5.39;66.96
40059;SHT31;25763;49.972;8.568;2023-03-05T02:26:39;5.36;66.41
40059;SHT31;25763;49.972;8.568;2023-03-05T02:29:07;5.42;66.22
40059;SHT31;25763;49.972;8.568;2023-03-05T02:31:33;5.46;66.12
40059;SHT31;25763;49.972;8.568;2023-03-05T02:33:59;5.50;65.92
40059;SHT31;25763;49.972;8.568;2023-03-05T02:36:24;5.54;65.99
40059;SHT31;25763;49.972;8.568;2023-03-05T02:38:50;5.53;65.26
40059;SHT31;25763;49.972;8.568;2023-03-05T02:41:17;5.54;65.22
40059;SHT31;25763;49.972;8.568;2023-03-05T02:43:42;5.54;65.27
40059;SHT31;25763;49.972;8.568;2023-03-05T02:46:08;5.50;65.23
40059;SHT31;25763;49.972;8.568;2023-03-05T02:48:33;5.47;64.96
40059;SHT31;25763;49.972;8.568;2023-03-05T02:50:59;5.46;65.30
40059;SHT31;25763;49.972;8.568;2023-03-05T02:53:26;5.43;65.20
40059;SHT31;25763;49.972;8.568;2023-03-05T02:55:51;5.39;65.51
40059;SHT31;25763;49.972;8.568;2023-03-05T02:58:17;5.38;65.58
40059;SHT31;25763;49.972;8.568;2023-03-05T03:00:43;5.38;66.11
40059;SHT31;25763;49.972;8.568;2023-03-05T03:03:08;5.36;65.96
40059;SHT31;25763;49.972;8.568;2023-03-05T03:05:35;5.32;66.20
40059;SHT31;25763;49.972;8.568;2023-03-05T03:08:00;5.30;66.89
40059;SHT31;25763;49.972;8.568;2023-03-05T03:10:25;5.33;67.09
40059;SHT31;25763;49.972;8.568;2023-03-05T03:12:51;5.30;67.31
40059;SHT31;25763;49.972;8.568;2023-03-05T03:15:16;5.28;67.60
40059;SHT31;25763;49.972;8.568;2023-03-05T03:17:43;5.32;67.76
40059;SHT31;25763;49.972;8.568;2023-03-05T03:20:12;5.30;68.06
40059;SHT31;25763;49.972;8.568;2023-03-05T03:22:42;5.30;68.42
40059;SHT31;25763;49.972;8.568;2023-03-05T03:25:09;5.29;68.57
40059;SHT31;25763;49.972;8.568;2023-03-05T03:27:35;5.30;68.74
40059;SHT31;25763;49.972;8.568;2023-03-05T03:30:00;5.33;68.95
40059;SHT31;25763;49.972;8.568;2023-03-05T03:32:29;5.35;69.07
40059;SHT31;25763;49.972;8.568;2023-03-05T03:34:54;5.36;69.15
40059;SHT31;25763;49.972;8.568;2023-03-05T03:37:20;5.38;69.10
40059;SHT31;25763;49.972;8.568;2023-03-05T03:39:45;5.40;69.23
40059;SHT31;25763;49.972;8.568;2023-03-05T03:42:10;5.38;69.37
40059;SHT31;25763;49.972;8.568;2023-03-05T03:44:36;5.39;69.45
40059;SHT31;25763;49.972;8.568;2023-03-05T03:47:01;5.46;69.47
40059;SHT31;25763;49.972;8.568;2023-03-05T03:49:27;5.43;69.65
40059;SHT31;25763;49.972;8.568;2023-03-05T03:51:53;5.40;69.82
40059;SHT31;25763;49.972;8.568;2023-03-05T03:54:20;5.48;69.73
40059;SHT31;25763;49.972;8.568;2023-03-05T03:56:46;5.50;69.67
40059;SHT31;25763;49.972;8.568;2023-03-05T03:59:12;5.47;69.85
40059;SHT31;25763;49.972;8.568;2023-03-05T04:01:38;5.33;70.16
40059;SHT31;25763;49.972;8.568;2023-03-05T04:04:04;5.30;70.49
40059;SHT31;25763;49.972;8.568;2023-03-05T04:06:30;5.26;70.64
40059;SHT31;25763;49.972;8.568;2023-03-05T04:08:55;5.19;70.81
40059;SHT31;25763;49.972;8.568;2023-03-05T04:11:21;5.16;70.94
40059;SHT31;25763;49.972;8.568;2023-03-05T04:13:47;5.16;70.98
40059;SHT31;25763;49.972;8.568;2023-03-05T04:16:14;5.15;71.15
40059;SHT31;25763;49.972;8.568;2023-03-05T04:18:39;5.16;71.07
40059;SHT31;25763;49.972;8.568;2023-03-05T04:21:05;5.18;71.12
40059;SHT31;25763;49.972;8.568;2023-03-05T04:23:31;5.16;71.19
40059;SHT31;25763;49.972;8.568;2023-03-05T04:25:56;5.22;71.18
40059;SHT31;25763;49.972;8.568;2023-03-05T04:28:22;5.16;71.22
40059;SHT31;25763;49.972;8.568;2023-03-05T04:30:47;5.18;71.28
40059;SHT31;25763;49.972;8.568;2023-03-05T04:33:13;5.15;71.46
40059;SHT31;25763;49.972;8.568;2023-03-05T04:35:38;5.19;71.45
40059;SHT31;25763;49.972;8.568;2023-03-05T04:38:04;5.19;71.45
40059;SHT31;25763;49.972;8.568;2023-03-05T04:40:29;5.16;71.44
40059;SHT31;25763;49.972;8.568;2023-03-05T04:42:55;5.22;71.54
40059;SHT31;25763;49.972;8.568;2023-03-05T04:45:20;5.23;71.49
40059;SHT31;25763;49.972;8.568;2023-03-05T04:47:45;5.19;71.48
40059;SHT31;25763;49.972;8.568;2023-03-05T04:50:11;5.21;71.54
40059;SHT31;25763;49.972;8.568;2023-03-05T04:52:39;5.22;71.54
40059;SHT31;25763;49.972;8.568;2023-03-05T04:55:05;5.25;71.58
40059;SHT31;25763;49.972;8.568;2023-03-05T04:57:31;5.23;71.52
40059;SHT31;25763;49.972;8.568;2023-03-05T04:59:56;5.23;71.48
40059;SHT31;25763;49.972;8.568;2023-03-05T05:02:21;5.26;71.54
40059;SHT31;25763;49.972;8.568;2023-03-05T05:04:47;5.22;71.54
40059;SHT31;25763;49.972;8.568;2023-03-05T05:07:12;5.25;71.60
40059;SHT31;25763;49.972;8.568;2023-03-05T05:09:38;5.23;71.64
40059;SHT31;25763;49.972;8.568;2023-03-05T05:12:05;5.28;71.53
40059;SHT31;25763;49.972;8.568;2023-03-05T05:14:32;5.21;71.35
40059;SHT31;25763;49.972;8.568;2023-03-05T05:16:58;5.11;70.66
40059;SHT31;25763;49.972;8.568;2023-03-05T05:19:23;5.04;70.68
40059;SHT31;25763;49.972;8.568;2023-03-05T05:21:49;5.01;70.56
40059;SHT31;25763;49.972;8.568;2023-03-05T05:24:14;5.03;70.89
40059;SHT31;25763;49.972;8.568;2023-03-05T05:26:39;5.01;71.37
40059;SHT31;25763;49.972;8.568;2023-03-05T05:29:05;4.98;71.73
40059;SHT31;25763;49.972;8.568;2023-03-05T05:31:30;5.03;71.73
40059;SHT31;25763;49.972;8.568;2023-03-05T05:33:55;4.94;71.93
40059;SHT31;25763;49.972;8.568;2023-03-05T05:36:21;4.90;72.00
40059;SHT31;25763;49.972;8.568;2023-03-05T05:38:47;4.87;71.89
40059;SHT31;25763;49.972;8.568;2023-03-05T05:41:15;4.86;71.56
40059;SHT31;25763;49.972;8.568;2023-03-05T05:43:41;4.87;71.51
40059;SHT31;25763;49.972;8.568;2023-03-05T05:46:10;4.81;70.98
40059;SHT31;25763;49.972;8.568;2023-03-05T05:48:36;4.84;71.07
40059;SHT31;25763;49.972;8.568;2023-03-05T05:51:06;4.93;70.88
40059;SHT31;25763;49.972;8.568;2023-03-05T05:53:32;4.98;71.06
40059;SHT31;25763;49.972;8.568;2023-03-05T05:55:57;5.04;71.19
40059;SHT31;25763;49.972;8.568;2023-03-05T05:58:22;5.00;71.18
40059;SHT31;25763;49.972;8.568;2023-03-05T06:00:48;4.98;70.73
40059;SHT31;25763;49.972;8.568;2023-03-05T06:03:13;4.97;70.69
40059;SHT31;25763;49.972;8.568;2023-03-05T06:05:40;4.97;70.73
40059;SHT31;25763;49.972;8.568;2023-03-05T06:08:06;4.94;70.37
40059;SHT31;25763;49.972;8.568;2023-03-05T06:10:31;4.95;70.35
40059;SHT31;25763;49.972;8.568;2023-03-05T06:12:56;4.90;69.88
40059;SHT31;25763;49.972;8.568;2023-03-05T06:15:22;4.97;70.38
40059;SHT31;25763;49.972;8.568;2023-03-05T06:17:47;4.95;70.38
40059;SHT31;25763;49.972;8.568;2023-03-05T06:20:13;4.87;69.91
40059;SHT31;25763;49.972;8.568;2023-03-05T06:22:38;4.90;70.15
40059;SHT31;25763;49.972;8.568;2023-03-05T06:25:05;4.91;70.47
40059;SHT31;25763;49.972;8.568;2023-03-05T06:27:31;4.87;70.24
40059;SHT31;25763;49.972;8.568;2023-03-05T06:29:56;4.94;70.49
40059;SHT31;25763;49.972;8.568;2023-03-05T06:32:22;4.91;70.60
40059;SHT31;25763;49.972;8.568;2023-03-05T06:34:48;4.88;70.76
40059;SHT31;25763;49.972;8.568;2023-03-05T06:37:14;4.73;71.33
40059;SHT31;25763;49.972;8.568;2023-03-05T06:39:39;4.68;71.55
40059;SHT31;25763;49.972;8.568;2023-03-05T06:42:04;4.70;71.43
40059;SHT31;25763;49.972;8.568;2023-03-05T06:44:30;4.75;71.37
40059;SHT31;25763;49.972;8.568;2023-03-05T06:46:55;4.66;71.18
40059;SHT31;25763;49.972;8.568;2023-03-05T06:49:20;4.66;71.00
40059;SHT31;25763;49.972;8.568;2023-03-05T06:51:46;4.69;70.82
40059;SHT31;25763;49.972;8.568;2023-03-05T06:54:13;4.72;70.50
40059;SHT31;25763;49.972;8.568;2023-03-05T06:56:41;4.72;70.45
40059;SHT31;25763;49.972;8.568;2023-03-05T06:59:07;4.63;70.35
40059;SHT31;25763;49.972;8.568;2023-03-05T07:01:33;4.62;70.38
40059;SHT31;25763;49.972;8.568;2023-03-05T07:03:58;4.58;70.62
40059;SHT31;25763;49.972;8.568;2023-03-05T07:06:25;4.58;70.62
40059;SHT31;25763;49.972;8.568;2023-03-05T07:08:54;4.56;70.78
40059;SHT31;25763;49.972;8.568;2023-03-05T07:11:21;4.58;70.81
40059;SHT31;25763;49.972;8.568;2023-03-05T07:13:47;4.56;70.76
40059;SHT31;25763;49.972;8.568;2023-03-05T07:16:15;4.58;70.85
40059;SHT31;25763;49.972;8.568;2023-03-05T07:18:41;4.60;70.86
40059;SHT31;25763;49.972;8.568;2023-03-05T07:21:07;4.66;70.92
40059;SHT31;25763;49.972;8.568;2023-03-05T07:23:34;4.68;70.73
40059;SHT31;25763;49.972;8.568;2023-03-05T07:26:04;4.73;70.54
40059;SHT31;25763;49.972;8.568;2023-03-05T07:28:30;4.75;70.52
40059;SHT31;25763;49.972;8.568;2023-03-05T07:31:04;4.86;70.43
40059;SHT31;25763;49.972;8.568;2023-03-05T07:33:30;4.84;70.21
40059;SHT31;25763;49.972;8.568;2023-03-05T07:35:56;4.79;70.11
40059;SHT31;25763;49.972;8.568;2023-03-05T07:38:21;4.77;69.79
40059;SHT31;25763;49.972;8.568;2023-03-05T07:40:47;4.81;69.95
40059;SHT31;25763;49.972;8.568;2023-03-05T07:43:12;4.81;69.72
40059;SHT31;25763;49.972;8.568;2023-03-05T07:45:42;4.91;69.82
40059;SHT31;25763;49.972;8.568;2023-03-05T07:48:17;4.88;69.66
40059;SHT31;25763;49.972;8.568;2023-03-05T07:50:45;4.95;69.77
40059;SHT31;25763;49.972;8.568;2023-03-05T07:53:10;4.91;69.56
40059;SHT31;25763;49.972;8.568;2023-03-05T07:55:41;5.05;69.72
40059;SHT31;25763;49.972;8.568;2023-03-05T07:58:07;5.09;69.81
40059;SHT31;25763;49.972;8.568;2023-03-05T08:00:32;5.01;69.82
40059;SHT31;25763;49.972;8.568;2023-03-05T08:02:57;4.88;70.32
40059;SHT31;25763;49.972;8.568;2023-03-05T08:05:23;4.93;70.52
40059;SHT31;25763;49.972;8.568;2023-03-05T08:07:48;4.97;70.73
40059;SHT31;25763;49.972;8.568;2023-03-05T08:10:13;5.00;71.03
40059;SHT31;25763;49.972;8.568;2023-03-05T08:12:38;5.05;71.09
40059;SHT31;25763;49.972;8.568;2023-03-05T08:15:04;5.01;71.58
40059;SHT31;25763;49.972;8.568;2023-03-05T08:17:30;5.04;71.63
40059;SHT31;25763;49.972;8.568;2023-03-05T08:19:55;5.11;71.72
40059;SHT31;25763;49.972;8.568;2023-03-05T08:22:24;5.16;71.71
40059;SHT31;25763;49.972;8.568;2023-03-05T08:24:49;5.04;71.71
40059;SHT31;25763;49.972;8.568;2023-03-05T08:27:16;5.05;71.63
40059;SHT31;25763;49.972;8.568;2023-03-05T08:29:42;5.03;71.81
40059;SHT31;25763;49.972;8.568;2023-03-05T08:32:07;5.01;72.00
40059;SHT31;25763;49.972;8.568;2023-03-05T08:34:33;4.98;71.80
40059;SHT31;25763;49.972;8.568;2023-03-05T08:36:58;4.98;71.33
40059;SHT31;25763;49.972;8.568;2023-03-05T08:39:23;4.94;71.29
40059;SHT31;25763;49.972;8.568;2023-03-05T08:41:49;4.90;71.43
40059;SHT31;25763;49.972;8.568;2023-03-05T08:44:14;4.98;71.28
40059;SHT31;25763;49.972;8.568;2023-03-05T08:46:39;4.95;71.00
40059;SHT31;25763;49.972;8.568;2023-03-05T08:49:06;4.98;70.82
40059;SHT31;25763;49.972;8.568;2023-03-05T08:51:32;4.97;70.57
40059;SHT31;25763;49.972;8.568;2023-03-05T08:53:58;5.05;70.33
40059;SHT31;25763;49.972;8.568;2023-03-05T08:56:24;5.12;70.24
40059;SHT31;25763;49.972;8.568;2023-03-05T08:58:51;5.15;70.19
40059;SHT31;25763;49.972;8.568;2023-03-05T09:01:17;5.16;70.06
40059;SHT31;25763;49.972;8.568;2023-03-05T09:03:43;5.18;70.17
40059;SHT31;25763;49.972;8.568;2023-03-05T09:06:10;5.30;69.96
40059;SHT31;25763;49.972;8.568;2023-03-05T09:08:37;5.47;69.80
40059;SHT31;25763;49.972;8.568;2023-03-05T09:11:04;5.50;69.56
40059;SHT31;25763;49.972;8.568;2023-03-05T09:13:30;5.48;69.12
40059;SHT31;25763;49.972;8.568;2023-03-05T09:15:56;5.53;69.07
40059;SHT31;25763;49.972;8.568;2023-03-05T09:18:22;5.46;68.87
40059;SHT31;25763;49.972;8.568;2023-03-05T09:20:48;5.53;69.16
40059;SHT31;25763;49.972;8.568;2023-03-05T09:23:13;5.77;69.02
40059;SHT31;25763;49.972;8.568;2023-03-05T09:25:39;5.75;68.39
40059;SHT31;25763;49.972;8.568;2023-03-05T09:28:06;5.78;68.37
40059;SHT31;25763;49.972;8.568;2023-03-05T09:30:31;5.71;68.41
40059;SHT31;25763;49.972;8.568;2023-03-05T09:32:59;5.78;68.49
40059;SHT31;25763;49.972;8.568;2023-03-05T09:35:25;5.62;68.33
40059;SHT31;25763;49.972;8.568;2023-03-05T09:37:50;5.56;68.55
40059;SHT31;25763;49.972;8.568;2023-03-05T09:40:17;5.69;68.58
40059;SHT31;25763;49.972;8.568;2023-03-05T09:45:47;5.54;67.97
40059;SHT31;25763;49.972;8.568;2023-03-05T09:48:43;5.46;68.22
40059;SHT31;25763;49.972;8.568;2023-03-05T09:51:18;5.64;68.31
40059;SHT31;25763;49.972;8.568;2023-03-05T09:54:04;5.70;67.35
40059;SHT31;25763;49.972;8.568;2023-03-05T09:56:35;5.67;66.37
40059;SHT31;25763;49.972;8.568;2023-03-05T10:01:41;5.77;66.57
40059;SHT31;25763;49.972;8.568;2023-03-05T10:06:35;5.63;66.00
40059;SHT31;25763;49.972;8.568;2023-03-05T10:09:06;5.56;65.73
40059;SHT31;25763;49.972;8.568;2023-03-05T10:12:00;5.56;65.53
40059;SHT31;25763;49.972;8.568;2023-03-05T10:19:58;5.48;64.70
40059;SHT31;25763;49.972;8.568;2023-03-05T10:22:55;5.67;65.17
40059;SHT31;25763;49.972;8.568;2023-03-05T10:25:25;5.81;64.72
40059;SHT31;25763;49.972;8.568;2023-03-05T10:27:57;5.77;64.16
40059;SHT31;25763;49.972;8.568;2023-03-05T10:30:52;5.94;63.60
40059;SHT31;25763;49.972;8.568;2023-03-05T10:36:28;5.95;62.97
40059;SHT31;25763;49.972;8.568;2023-03-05T10:41:59;6.02;62.84
40059;SHT31;25763;49.972;8.568;2023-03-05T10:49:49;5.81;62.82
40059;SHT31;25763;49.972;8.568;2023-03-05T10:52:35;5.87;63.03
40059;SHT31;25763;49.972;8.568;2023-03-05T10:55:16;5.95;63.18
40059;SHT31;25763;49.972;8.568;2023-03-05T10:57:43;5.94;62.97
40059;SHT31;25763;49.972;8.568;2023-03-05T11:00:20;5.95;63.05
40059;SHT31;25763;49.972;8.568;2023-03-05T11:03:07;5.87;63.13
40059;SHT31;25763;49.972;8.568;2023-03-05T11:08:26;6.13;63.20
40059;SHT31;25763;49.972;8.568;2023-03-05T11:13:27;6.32;62.74
40059;SHT31;25763;49.972;8.568;2023-03-05T11:16:05;6.27;62.71
40059;SHT31;25763;49.972;8.568;2023-03-05T11:18:32;6.33;62.89
40059;SHT31;25763;49.972;8.568;2023-03-05T11:21:09;6.22;63.15
40059;SHT31;25763;49.972;8.568;2023-03-05T11:23:35;6.40;63.33
40059;SHT31;25763;49.972;8.568;2023-03-05T11:26:22;6.02;64.07
40059;SHT31;25763;49.972;8.568;2023-03-05T11:33:58;5.97;64.99
40059;SHT31;25763;49.972;8.568;2023-03-05T11:36:38;5.95;64.78
40059;SHT31;25763;49.972;8.568;2023-03-05T11:42:09;5.99;64.64
40059;SHT31;25763;49.972;8.568;2023-03-05T11:47:22;5.97;64.32
40059;SHT31;25763;49.972;8.568;2023-03-05T11:49:53;5.80;64.58
40059;SHT31;25763;49.972;8.568;2023-03-05T11:52:23;5.78;64.71
40059;SHT31;25763;49.972;8.568;2023-03-05T11:55:14;5.89;64.07
40059;SHT31;25763;49.972;8.568;2023-03-05T11:57:57;5.98;64.06
40059;SHT31;25763;49.972;8.568;2023-03-05T12:00:28;6.05;63.73
40059;SHT31;25763;49.972;8.568;2023-03-05T12:02:55;6.12;63.31
40059;SHT31;25763;49.972;8.568;2023-03-05T12:05:22;6.17;63.10
40059;SHT31;25763;49.972;8.568;2023-03-05T12:07:49;6.05;63.06
40059;SHT31;25763;49.972;8.568;2023-03-05T12:10:18;6.19;63.61
40059;SHT31;25763;49.972;8.568;2023-03-05T12:15:37;6.40;63.38
40059;SHT31;25763;49.972;8.568;2023-03-05T12:21:14;6.72;62.18
40059;SHT31;25763;49.972;8.568;2023-03-05T12:23:47;6.86;61.68
40059;SHT31;25763;49.972;8.568;2023-03-05T12:26:13;6.99;61.21
40059;SHT31;25763;49.972;8.568;2023-03-05T12:33:38;7.34;60.00
40059;SHT31;25763;49.972;8.568;2023-03-05T12:38:53;7.16;59.85
40059;SHT31;25763;49.972;8.568;2023-03-05T12:49:26;7.26;60.76
40059;SHT31;25763;49.972;8.568;2023-03-05T12:51:51;7.13;61.56
40059;SHT31;25763;49.972;8.568;2023-03-05T12:54:36;7.17;60.73
40059;SHT31;25763;49.972;8.568;2023-03-05T12:57:17;7.07;61.11
40059;SHT31;25763;49.972;8.568;2023-03-05T12:59:49;7.03;60.82
40059;SHT31;25763;49.972;8.568;2023-03-05T13:02:34;7.03;61.12
40059;SHT31;25763;49.972;8.568;2023-03-05T13:05:06;7.00;60.75
40059;SHT31;25763;49.972;8.568;2023-03-05T13:07:39;7.32;60.37
40059;SHT31;25763;49.972;8.568;2023-03-05T13:10:04;7.06;60.11
40059;SHT31;25763;49.972;8.568;2023-03-05T13:12:30;7.09;60.42
40059;SHT31;25763;49.972;8.568;2023-03-05T13:15:02;6.96;60.20
40059;SHT31;25763;49.972;8.568;2023-03-05T13:19:59;6.93;60.57
40059;SHT31;25763;49.972;8.568;2023-03-05T13:22:25;6.78;60.11
40059;SHT31;25763;49.972;8.568;2023-03-05T13:25:13;6.68;60.98
40059;SHT31;25763;49.972;8.568;2023-03-05T13:27:40;6.51;61.09
40059;SHT31;25763;49.972;8.568;2023-03-05T13:30:20;6.37;60.87
40059;SHT31;25763;49.972;8.568;2023-03-05T13:32:49;6.47;61.63
40059;SHT31;25763;49.972;8.568;2023-03-05T13:35:15;6.45;61.76
40059;SHT31;25763;49.972;8.568;2023-03-05T13:37:42;6.48;61.75
40059;SHT31;25763;49.972;8.568;2023-03-05T13:40:22;6.34;61.75
40059;SHT31;25763;49.972;8.568;2023-03-05T13:42:47;6.24;61.52
40059;SHT31;25763;49.972;8.568;2023-03-05T13:45:30;6.30;61.88
40059;SHT31;25763;49.972;8.568;2023-03-05T13:48:01;6.41;62.06
40059;SHT31;25763;49.972;8.568;2023-03-05T13:50:33;6.30;62.23
40059;SHT31;25763;49.972;8.568;2023-03-05T13:53:19;6.17;61.70
40059;SHT31;25763;49.972;8.568;2023-03-05T13:55:47;6.17;61.19
40059;SHT31;25763;49.972;8.568;2023-03-05T13:58:52;6.32;61.62
40059;SHT31;25763;49.972;8.568;2023-03-05T14:01:30;6.52;61.31
40059;SHT31;25763;49.972;8.568;2023-03-05T14:04:28;6.58;61.17
40059;SHT31;25763;49.972;8.568;2023-03-05T14:07:07;6.63;60.82
40059;SHT31;25763;49.972;8.568;2023-03-05T14:09:49;6.63;60.87
40059;SHT31;25763;49.972;8.568;2023-03-05T14:14:55;6.59;61.36
40059;SHT31;25763;49.972;8.568;2023-03-05T14:22:37;6.65;61.17
40059;SHT31;25763;49.972;8.568;2023-03-05T14:25:05;6.54;61.24
40059;SHT31;25763;49.972;8.568;2023-03-05T14:27:34;6.47;61.15
40059;SHT31;25763;49.972;8.568;2023-03-05T14:30:02;6.44;61.48
40059;SHT31;25763;49.972;8.568;2023-03-05T14:32:33;6.48;60.87
40059;SHT31;25763;49.972;8.568;2023-03-05T14:35:01;6.47;60.51
40059;SHT31;25763;49.972;8.568;2023-03-05T14:37:40;6.61;60.16
40059;SHT31;25763;49.972;8.568;2023-03-05T14:42:50;6.63;59.16
40059;SHT31;25763;49.972;8.568;2023-03-05T14:45:21;6.68;59.38
40059;SHT31;25763;49.972;8.568;2023-03-05T14:47:49;6.57;59.32
40059;SHT31;25763;49.972;8.568;2023-03-05T14:50:17;6.54;59.53
40059;SHT31;25763;49.972;8.568;2023-03-05T14:52:43;6.59;59.80
40059;SHT31;25763;49.972;8.568;2023-03-05T14:55:14;6.50;59.66
40059;SHT31;25763;49.972;8.568;2023-03-05T14:57:39;6.42;59.64
40059;SHT31;25763;49.972;8.568;2023-03-05T15:00:14;6.48;59.73
40059;SHT31;25763;49.972;8.568;2023-03-05T15:02:40;6.47;59.83
40059;SHT31;25763;49.972;8.568;2023-03-05T15:05:06;6.51;60.19
40059;SHT31;25763;49.972;8.568;2023-03-05T15:07:31;6.52;60.30
40059;SHT31;25763;49.972;8.568;2023-03-05T15:09:57;6.54;60.38
40059;SHT31;25763;49.972;8.568;2023-03-05T15:12:24;6.45;60.34
40059;SHT31;25763;49.972;8.568;2023-03-05T15:14:51;6.40;60.28
40059;SHT31;25763;49.972;8.568;2023-03-05T15:17:23;6.37;60.61
40059;SHT31;25763;49.972;8.568;2023-03-05T15:19:50;6.24;60.56
40059;SHT31;25763;49.972;8.568;2023-03-05T15:22:16;6.15;60.73
40059;SHT31;25763;49.972;8.568;2023-03-05T15:24:42;6.17;60.94
40059;SHT31;25763;49.972;8.568;2023-03-05T15:27:08;6.19;61.22
40059;SHT31;25763;49.972;8.568;2023-03-05T15:29:33;6.23;61.28
40059;SHT31;25763;49.972;8.568;2023-03-05T15:31:59;6.26;61.31
40059;SHT31;25763;49.972;8.568;2023-03-05T15:34:27;6.17;61.13
40059;SHT31;25763;49.972;8.568;2023-03-05T15:36:52;6.12;61.15
40059;SHT31;25763;49.972;8.568;2023-03-05T15:39:17;6.07;61.53
40059;SHT31;25763;49.972;8.568;2023-03-05T15:41:43;6.10;61.44
40059;SHT31;25763;49.972;8.568;2023-03-05T15:44:08;6.12;61.76
40059;SHT31;25763;49.972;8.568;2023-03-05T15:46:34;6.05;61.60
40059;SHT31;25763;49.972;8.568;2023-03-05T15:48:59;5.97;61.30
40059;SHT31;25763;49.972;8.568;2023-03-05T15:51:25;5.97;61.48
40059;SHT31;25763;49.972;8.568;2023-03-05T15:53:50;5.98;61.71
40059;SHT31;25763;49.972;8.568;2023-03-05T15:56:17;5.97;61.91
40059;SHT31;25763;49.972;8.568;2023-03-05T15:58:43;5.91;62.02
40059;SHT31;25763;49.972;8.568;2023-03-05T16:01:11;5.95;62.32
40059;SHT31;25763;49.972;8.568;2023-03-05T16:03:36;5.88;62.37
40059;SHT31;25763;49.972;8.568;2023-03-05T16:06:03;5.84;62.68
40059;SHT31;25763;49.972;8.568;2023-03-05T16:08:30;5.89;62.87
40059;SHT31;25763;49.972;8.568;2023-03-05T16:10:56;5.88;62.61
40059;SHT31;25763;49.972;8.568;2023-03-05T16:13:22;5.84;62.78
40059;SHT31;25763;49.972;8.568;2023-03-05T16:15:48;5.84;62.73
40059;SHT31;25763;49.972;8.568;2023-03-05T16:18:17;5.74;62.72
40059;SHT31;25763;49.972;8.568;2023-03-05T16:20:43;5.73;62.91
40059;SHT31;25763;49.972;8.568;2023-03-05T16:23:09;5.75;63.11
40059;SHT31;25763;49.972;8.568;2023-03-05T16:25:36;5.75;63.11
40059;SHT31;25763;49.972;8.568;2023-03-05T16:28:01;5.81;63.20
40059;SHT31;25763;49.972;8.568;2023-03-05T16:30:27;5.81;63.31
40059;SHT31;25763;49.972;8.568;2023-03-05T16:32:52;5.80;63.17
40059;SHT31;25763;49.972;8.568;2023-03-05T16:35:18;5.80;63.21
40059;SHT31;25763;49.972;8.568;2023-03-05T16:37:43;5.80;63.20
40059;SHT31;25763;49.972;8.568;2023-03-05T16:40:10;5.78;63.43
40059;SHT31;25763;49.972;8.568;2023-03-05T16:42:35;5.80;63.39
40059;SHT31;25763;49.972;8.568;2023-03-05T16:45:01;5.74;63.35
40059;SHT31;25763;49.972;8.568;2023-03-05T16:47:27;5.75;63.29
40059;SHT31;25763;49.972;8.568;2023-03-05T16:49:53;5.77;63.28
40059;SHT31;25763;49.972;8.568;2023-03-05T16:52:18;5.82;63.50
40059;SHT31;25763;49.972;8.568;2023-03-05T16:54:44;5.87;63.61
40059;SHT31;25763;49.972;8.568;2023-03-05T16:57:09;5.81;63.43
40059;SHT31;25763;49.972;8.568;2023-03-05T16:59:36;5.78;63.58
40059;SHT31;25763;49.972;8.568;2023-03-05T17:02:02;5.82;63.54
40059;SHT31;25763;49.972;8.568;2023-03-05T17:04:28;5.80;63.55
40059;SHT31;25763;49.972;8.568;2023-03-05T17:06:54;5.81;63.51
40059;SHT31;25763;49.972;8.568;2023-03-05T17:09:20;5.75;63.56